EPWR/WRO METAR and TAF weather

Enter ICAO airport designator
Station Type Date Time Source
EPWR METAR 2020/01/18 04:30 UTC NOAA

EPWR 180430Z 24009KT 9999 BKN020 BKN035 04/00 Q1021


Station Type Date Time Source
EPWR Decoded METAR 2020/01/18 04:30 UTC NOAA

Wroclaw Ii, Poland (EPWR) 51-06N 016-53E 121M
Jan 17, 2020 - 11:30 PM EST / 2020.01.18 0430 UTC
Wind: from the WSW (240 degrees) at 10 MPH (9 KT):0
Visibility: greater than 7 mile(s):0
Sky conditions: mostly cloudy
Temperature: 39 F (4 C)
Dew Point: 32 F (0 C)
Relative Humidity: 75%
Pressure (altimeter): 30.15 in. Hg (1021 hPa)
ob: EPWR 180430Z 24009KT 9999 BKN020 BKN035 04/00 Q1021
cycle: 4

Station Type Date Time Source
EPWR TAF 2020/01/18 03:33 UTC NOAA

TAF TAF EPWR 180230Z 1803/1903 18008KT 7000 SCT040
BECMG 1804/1806 26010KT BKN013
TEMPO 1806/1824 4000 RA BR PROB30
TEMPO 1807/1812 BKN006 BKN013
BECMG 1812/1815 BKN030

Example: see airport list